createdAt,value
2024-02-10T00:00:37.836Z,9.28
2024-02-10T00:01:37.992Z,9.31
2024-02-10T00:02:37.826Z,9.32
2024-02-10T00:03:37.795Z,9.32
2024-02-10T00:04:37.880Z,9.34
2024-02-10T00:05:37.866Z,9.34
2024-02-10T00:06:38.130Z,9.34
2024-02-10T00:07:37.786Z,9.38
2024-02-10T00:08:37.846Z,9.38
2024-02-10T00:09:37.749Z,9.32
2024-02-10T00:10:37.763Z,9.32
2024-02-10T00:11:37.735Z,9.35
2024-02-10T00:12:37.699Z,9.35
2024-02-10T00:13:40.086Z,9.34
2024-02-10T00:14:37.705Z,9.34
2024-02-10T00:15:37.691Z,9.31
2024-02-10T00:16:37.702Z,9.28
2024-02-10T00:17:37.686Z,9.31
2024-02-10T00:18:37.782Z,9.30
2024-02-10T00:19:37.640Z,9.30
2024-02-10T00:20:37.613Z,9.32
2024-02-10T00:21:37.639Z,9.30
2024-02-10T00:22:37.670Z,9.32
2024-02-10T00:23:37.585Z,9.28
2024-02-10T00:24:37.593Z,9.28
2024-02-10T00:25:37.625Z,9.30
2024-02-10T00:26:37.583Z,9.25
2024-02-10T00:27:37.544Z,9.28
2024-02-10T00:28:37.753Z,9.28
2024-02-10T00:29:38.357Z,9.31
2024-02-10T00:30:37.499Z,9.27
2024-02-10T00:31:37.552Z,9.27
2024-02-10T00:32:37.561Z,9.28
2024-02-10T00:33:37.612Z,9.28
2024-02-10T00:34:37.528Z,9.28
2024-02-10T00:35:37.496Z,9.30
2024-02-10T00:36:37.444Z,9.30
2024-02-10T00:37:37.482Z,9.32
2024-02-10T00:38:37.492Z,9.31
2024-02-10T00:39:37.886Z,9.35
2024-02-10T00:40:37.517Z,9.34
2024-02-10T00:41:37.414Z,9.31
2024-02-10T00:42:37.427Z,9.32
2024-02-10T00:43:37.421Z,9.32
2024-02-10T00:44:37.389Z,9.32
2024-02-10T00:45:37.364Z,9.34
2024-02-10T00:46:37.394Z,9.35
2024-02-10T00:47:37.379Z,9.35
2024-02-10T00:48:37.437Z,9.38
2024-02-10T00:49:37.349Z,9.38
2024-02-10T00:50:37.334Z,9.35
2024-02-10T00:51:37.313Z,9.34
2024-02-10T00:52:37.308Z,9.34
2024-02-10T00:53:37.279Z,9.38
2024-02-10T00:54:37.258Z,9.35
2024-02-10T00:55:37.402Z,9.38
2024-02-10T00:56:37.273Z,9.35
2024-02-10T00:57:37.249Z,9.43
2024-02-10T00:58:37.346Z,9.42
2024-02-10T00:59:37.217Z,9.42
2024-02-10T01:00:37.248Z,9.45
2024-02-10T01:01:37.212Z,9.43
2024-02-10T01:02:37.165Z,9.42
2024-02-10T01:03:37.201Z,9.40
2024-02-10T01:04:37.209Z,9.45
2024-02-10T01:05:37.260Z,9.42
2024-02-10T01:06:37.133Z,9.42
2024-02-10T01:07:37.166Z,9.43
2024-02-10T01:08:37.205Z,9.42
2024-02-10T01:09:37.112Z,9.43
2024-02-10T01:10:37.112Z,9.40
2024-02-10T01:11:37.078Z,9.42
2024-02-10T01:12:37.068Z,9.35
2024-02-10T01:13:37.100Z,9.38
2024-02-10T01:14:37.352Z,9.35
2024-02-10T01:15:37.061Z,9.35
2024-02-10T01:16:37.112Z,9.35
2024-02-10T01:17:37.045Z,9.39
2024-02-10T01:18:37.135Z,9.38
2024-02-10T01:19:37.005Z,9.38
2024-02-10T01:20:37.034Z,9.35
2024-02-10T01:21:36.974Z,9.35
2024-02-10T01:22:36.996Z,9.38
2024-02-10T01:23:36.948Z,9.34
2024-02-10T01:24:36.986Z,9.34
2024-02-10T01:25:36.935Z,9.32
2024-02-10T01:26:36.922Z,9.38
2024-02-10T01:27:36.913Z,9.38
2024-02-10T01:28:37.027Z,9.38
2024-02-10T01:29:36.907Z,9.38
2024-02-10T01:30:36.909Z,9.38
2024-02-10T01:31:36.893Z,9.34
2024-02-10T01:32:36.913Z,9.35
2024-02-10T01:33:36.899Z,9.38
2024-02-10T01:34:36.836Z,9.39
2024-02-10T01:35:36.840Z,9.32
2024-02-10T01:36:36.858Z,9.31
2024-02-10T01:37:36.814Z,9.34
2024-02-10T01:38:36.824Z,9.35
2024-02-10T01:39:36.779Z,9.35
2024-02-10T01:40:36.848Z,9.35
2024-02-10T01:41:36.765Z,9.35
2024-02-10T01:42:36.795Z,9.38
2024-02-10T01:43:36.802Z,9.35
2024-02-10T01:44:36.728Z,9.39
2024-02-10T01:45:36.733Z,9.39
2024-02-10T01:46:44.704Z,9.31
2024-02-10T01:47:36.730Z,9.34
2024-02-10T01:48:36.750Z,9.32
2024-02-10T01:49:36.716Z,9.30
2024-02-10T01:50:36.847Z,9.31
2024-02-10T01:51:36.670Z,9.31
2024-02-10T01:52:36.701Z,9.28
2024-02-10T01:53:36.636Z,9.31
2024-02-10T01:54:36.650Z,9.28
2024-02-10T01:55:36.608Z,9.28
2024-02-10T01:56:36.640Z,9.32
2024-02-10T01:57:36.614Z,9.30
2024-02-10T01:58:36.606Z,9.27
2024-02-10T01:59:36.588Z,9.28
2024-02-10T02:00:36.616Z,9.28
2024-02-10T02:01:36.612Z,9.31
2024-02-10T02:02:36.557Z,9.30
2024-02-10T02:03:36.611Z,9.34
2024-02-10T02:04:36.588Z,9.32
2024-02-10T02:05:36.514Z,9.34
2024-02-10T02:06:36.532Z,9.34
2024-02-10T02:07:36.527Z,9.32
2024-02-10T02:08:36.496Z,9.32
2024-02-10T02:09:36.493Z,9.31
2024-02-10T02:10:36.519Z,9.32
2024-02-10T02:11:36.452Z,9.31
2024-02-10T02:12:36.438Z,9.32
2024-02-10T02:13:37.247Z,9.30
2024-02-10T02:14:36.407Z,9.31
2024-02-10T02:15:36.492Z,9.34
2024-02-10T02:16:36.488Z,9.35
2024-02-10T02:17:36.491Z,9.31
2024-02-10T02:18:58.591Z,9.32
2024-02-10T02:20:15.049Z,9.31
2024-02-10T02:20:47.232Z,9.31
2024-02-10T02:21:36.371Z,9.30
2024-02-10T02:22:36.389Z,9.32
2024-02-10T02:23:36.374Z,9.30
2024-02-10T02:24:36.467Z,9.30
2024-02-10T02:25:36.531Z,9.31
2024-02-10T02:26:36.326Z,9.32
2024-02-10T02:27:36.336Z,9.28
2024-02-10T02:28:36.427Z,9.32
2024-02-10T02:29:36.291Z,9.32
2024-02-10T02:30:37.897Z,9.34
2024-02-10T02:31:36.291Z,9.35
2024-02-10T02:32:36.254Z,9.35
2024-02-10T02:33:36.234Z,9.34
2024-02-10T02:34:36.317Z,9.31
2024-02-10T02:35:36.203Z,9.30
2024-02-10T02:36:36.190Z,9.27
2024-02-10T02:37:36.240Z,9.28
2024-02-10T02:38:36.162Z,9.28
2024-02-10T02:39:36.157Z,9.27
2024-02-10T02:40:36.189Z,9.31
2024-02-10T02:41:36.129Z,9.30
2024-02-10T02:42:36.144Z,9.28
2024-02-10T02:43:36.171Z,9.28
2024-02-10T02:44:36.091Z,9.27
2024-02-10T02:45:36.122Z,9.25
2024-02-10T02:46:36.116Z,9.23
2024-02-10T02:47:36.158Z,9.23
2024-02-10T02:48:36.212Z,9.23
2024-02-10T02:49:36.100Z,9.21
2024-02-10T02:50:36.019Z,9.23
2024-02-10T02:51:36.027Z,9.20
2024-02-10T02:52:36.117Z,9.21
2024-02-10T02:53:36.017Z,9.16
2024-02-10T02:54:36.011Z,9.15
2024-02-10T02:55:36.055Z,9.15
2024-02-10T02:56:35.960Z,9.13
2024-02-10T02:57:36.052Z,9.13
2024-02-10T02:58:36.015Z,9.15
2024-02-10T02:59:35.946Z,9.13
2024-02-10T03:00:35.974Z,9.15
2024-02-10T03:01:35.916Z,9.13
2024-02-10T03:02:35.929Z,9.16
2024-02-10T03:03:42.635Z,9.13
2024-02-10T03:04:35.966Z,9.12
2024-02-10T03:05:35.938Z,9.13
2024-02-10T03:06:35.926Z,9.10
2024-02-10T03:07:35.910Z,9.06
2024-02-10T03:08:35.843Z,9.06
2024-02-10T03:09:35.819Z,9.02
2024-02-10T03:10:35.938Z,9.01
2024-02-10T03:11:35.823Z,8.99
2024-02-10T03:12:35.791Z,9.01
2024-02-10T03:13:35.808Z,9.04
2024-02-10T03:14:35.795Z,8.97
2024-02-10T03:15:35.805Z,8.99
2024-02-10T03:16:35.813Z,8.99
2024-02-10T03:17:35.802Z,9.01
2024-02-10T03:18:35.768Z,8.99
2024-02-10T03:19:35.719Z,8.97
2024-02-10T03:20:35.734Z,8.94
2024-02-10T03:21:35.709Z,8.96
2024-02-10T03:22:35.752Z,8.96
2024-02-10T03:23:35.685Z,8.91
2024-02-10T03:24:35.730Z,8.90
2024-02-10T03:25:35.683Z,8.91
2024-02-10T03:26:35.661Z,8.86
2024-02-10T03:27:35.675Z,8.83
2024-02-10T03:28:35.695Z,8.86
2024-02-10T03:29:35.639Z,8.83
2024-02-10T03:30:35.651Z,8.81
2024-02-10T03:31:35.653Z,8.83
2024-02-10T03:32:35.667Z,8.78
2024-02-10T03:33:35.708Z,8.79
2024-02-10T03:34:35.909Z,8.73
2024-02-10T03:35:35.604Z,8.72
2024-02-10T03:36:35.772Z,8.72
2024-02-10T03:37:35.593Z,8.71
2024-02-10T03:38:35.524Z,8.69
2024-02-10T03:39:35.505Z,8.66
2024-02-10T03:40:35.552Z,8.63
2024-02-10T03:41:35.522Z,8.63
2024-02-10T03:42:35.549Z,8.60
2024-02-10T03:43:35.504Z,8.55
2024-02-10T03:44:35.453Z,8.55
2024-02-10T03:45:35.469Z,8.53
2024-02-10T03:46:35.548Z,8.54
2024-02-10T03:47:35.485Z,8.51
2024-02-10T03:48:35.522Z,8.47
2024-02-10T03:49:35.429Z,8.44
2024-02-10T03:50:35.397Z,8.42
2024-02-10T03:51:35.406Z,8.39
2024-02-10T03:52:35.477Z,8.39
2024-02-10T03:53:35.381Z,8.35
2024-02-10T03:54:35.345Z,8.35
2024-02-10T03:55:35.363Z,8.33
2024-02-10T03:56:35.373Z,8.32
2024-02-10T03:57:35.316Z,8.32
2024-02-10T03:58:35.404Z,8.30
2024-02-10T03:59:35.303Z,8.26
2024-02-10T04:00:35.354Z,8.26
2024-02-10T04:01:35.334Z,8.25
2024-02-10T04:02:35.319Z,8.25
2024-02-10T04:03:35.290Z,8.20
2024-02-10T04:04:35.291Z,8.17
2024-02-10T04:05:35.285Z,8.18
2024-02-10T04:06:35.644Z,8.15
2024-02-10T04:07:36.016Z,8.11
2024-02-10T04:08:35.204Z,8.07
2024-02-10T04:09:35.780Z,8.07
2024-02-10T04:10:35.245Z,8.02
2024-02-10T04:11:35.236Z,8.02
2024-02-10T04:12:35.193Z,8.00
2024-02-10T04:13:35.192Z,8.00
2024-02-10T04:14:35.150Z,8.00
2024-02-10T04:15:46.871Z,8.00
2024-02-10T04:16:35.254Z,7.96
2024-02-10T04:17:35.192Z,7.99
2024-02-10T04:18:35.155Z,7.97
2024-02-10T04:19:35.153Z,7.97
2024-02-10T04:20:35.794Z,7.97
2024-02-10T04:21:35.101Z,7.94
2024-02-10T04:22:35.109Z,7.94
2024-02-10T04:23:35.162Z,7.96
2024-02-10T04:24:35.067Z,7.92
2024-02-10T04:25:35.069Z,7.94
2024-02-10T04:26:35.035Z,7.96
2024-02-10T04:27:35.030Z,7.96
2024-02-10T04:28:35.111Z,7.94
2024-02-10T04:29:35.021Z,7.99
2024-02-10T04:30:34.990Z,8.00
2024-02-10T04:31:34.998Z,8.00
2024-02-10T04:32:35.057Z,8.02
2024-02-10T04:33:35.102Z,8.04
2024-02-10T04:34:35.043Z,8.03
2024-02-10T04:35:34.935Z,8.08
2024-02-10T04:36:34.928Z,8.10
2024-02-10T04:37:34.981Z,8.08
2024-02-10T04:38:34.920Z,8.10
2024-02-10T04:39:34.898Z,8.11
2024-02-10T04:40:34.919Z,8.14
2024-02-10T04:41:34.870Z,8.12
2024-02-10T04:42:34.902Z,8.11
2024-02-10T04:46:09.107Z,8.17
2024-02-10T04:47:10.005Z,8.18
2024-02-10T04:48:10.236Z,8.21
2024-02-10T04:49:10.020Z,8.21
2024-02-10T04:50:09.959Z,8.25
2024-02-10T04:51:09.938Z,8.25
2024-02-10T04:52:09.950Z,8.25
2024-02-10T04:55:08.516Z,8.26
2024-02-10T04:56:09.251Z,8.21
2024-02-10T04:57:09.178Z,8.25
2024-02-10T04:58:09.198Z,8.22
2024-02-10T04:59:09.157Z,8.22
2024-02-10T05:00:09.153Z,8.25
2024-02-10T05:01:09.148Z,8.22
2024-02-10T05:02:09.145Z,8.21
2024-02-10T05:03:09.252Z,8.26
2024-02-10T05:04:09.111Z,8.26
2024-02-10T05:05:09.164Z,8.29
2024-02-10T05:06:09.245Z,8.28
2024-02-10T05:07:09.059Z,8.26
2024-02-10T05:08:09.109Z,8.25
2024-02-10T05:09:09.028Z,8.25
2024-02-10T05:10:09.028Z,8.25
2024-02-10T05:11:09.072Z,8.22
2024-02-10T05:13:56.039Z,8.26
2024-02-10T05:14:56.876Z,8.22
2024-02-10T05:15:56.785Z,8.21
2024-02-10T05:16:56.812Z,8.17
2024-02-10T05:17:56.791Z,8.18
2024-02-10T05:18:56.838Z,8.14
2024-02-10T05:19:56.780Z,8.11
2024-02-10T05:20:56.710Z,8.10
2024-02-10T05:21:56.711Z,8.08
2024-02-10T05:22:56.769Z,8.08
2024-02-10T05:23:56.646Z,8.07
2024-02-10T05:24:56.638Z,8.02
2024-02-10T05:28:17.087Z,7.99
2024-02-10T05:29:18.098Z,7.99
2024-02-10T05:30:18.027Z,7.96
2024-02-10T05:31:18.021Z,7.93
2024-02-10T05:32:17.958Z,7.96
2024-02-10T05:33:18.036Z,7.92
2024-02-10T05:34:17.985Z,7.89
2024-02-10T05:35:17.925Z,7.87
2024-02-10T05:36:17.933Z,7.85
2024-02-10T05:37:17.918Z,7.85
2024-02-10T05:38:17.910Z,7.82
2024-02-10T05:39:18.713Z,7.82
2024-02-10T05:40:17.918Z,7.81
2024-02-10T05:41:17.855Z,7.81
2024-02-10T05:42:17.867Z,7.77
2024-02-10T05:43:17.899Z,7.75
2024-02-10T05:44:17.910Z,7.75
2024-02-10T05:45:17.830Z,7.78
2024-02-10T05:46:17.865Z,7.75
2024-02-10T05:47:17.839Z,7.74
2024-02-10T05:48:17.864Z,7.72
2024-02-10T05:49:17.806Z,7.71
2024-02-10T05:50:17.762Z,7.69
2024-02-10T05:51:17.846Z,7.69
2024-02-10T05:54:52.491Z,7.71
2024-02-10T05:55:53.595Z,7.69
2024-02-10T05:56:53.450Z,7.67
2024-02-10T05:59:36.681Z,7.56
2024-02-10T06:00:37.655Z,7.58
2024-02-10T06:01:37.677Z,7.55
2024-02-10T06:02:37.594Z,7.58
2024-02-10T06:05:57.597Z,7.53
2024-02-10T06:06:58.389Z,7.53
2024-02-10T06:07:58.977Z,7.56
2024-02-10T06:08:58.345Z,7.58
2024-02-10T06:09:58.238Z,7.62
2024-02-10T06:10:58.292Z,7.62
2024-02-10T06:11:58.238Z,7.60
2024-02-10T06:12:58.257Z,7.62
2024-02-10T06:13:58.299Z,7.63
2024-02-10T06:14:58.182Z,7.63
2024-02-10T06:15:58.188Z,7.60
2024-02-10T06:16:58.270Z,7.63
2024-02-10T06:17:58.338Z,7.66
2024-02-10T06:18:58.182Z,7.63
2024-02-10T06:19:58.211Z,7.66
2024-02-10T06:20:58.117Z,7.66
2024-02-10T06:21:58.134Z,7.69
2024-02-10T06:22:58.153Z,7.69
2024-02-10T06:23:58.147Z,7.72
2024-02-10T06:27:57.379Z,7.72
2024-02-10T06:28:59.098Z,7.75
2024-02-10T06:32:44.398Z,7.67
2024-02-10T06:33:45.310Z,7.66
2024-02-10T06:34:45.175Z,7.67
2024-02-10T06:35:45.219Z,7.67
2024-02-10T06:36:45.108Z,7.60
2024-02-10T06:39:11.148Z,7.58
2024-02-10T06:40:12.157Z,7.53
2024-02-10T06:41:12.289Z,7.53
2024-02-10T06:42:12.121Z,7.52
2024-02-10T06:43:12.185Z,7.47
2024-02-10T06:44:12.190Z,7.44
2024-02-10T06:45:12.045Z,7.44
2024-02-10T06:46:12.043Z,7.42
2024-02-10T06:47:12.067Z,7.44
2024-02-10T06:48:12.065Z,7.41
2024-02-10T06:49:12.123Z,7.40
2024-02-10T06:50:12.012Z,7.41
2024-02-10T06:51:12.014Z,7.41
2024-02-10T06:52:11.986Z,7.38
2024-02-10T06:53:11.988Z,7.37
2024-02-10T06:54:11.984Z,7.37
2024-02-10T06:55:11.986Z,7.37
2024-02-10T06:56:11.981Z,7.35
2024-02-10T06:57:11.957Z,7.37
2024-02-10T06:58:11.934Z,7.34
2024-02-10T06:59:11.908Z,7.37
2024-02-10T07:00:11.920Z,7.40
2024-02-10T07:01:13.579Z,7.40
2024-02-10T07:02:11.987Z,7.42
2024-02-10T07:03:11.866Z,7.44
2024-02-10T07:04:11.891Z,7.45
2024-02-10T07:05:11.953Z,7.45
2024-02-10T07:06:11.929Z,7.44
2024-02-10T07:07:11.869Z,7.41
2024-02-10T07:08:11.795Z,7.42
2024-02-10T07:09:11.814Z,7.45
2024-02-10T07:10:11.829Z,7.47
2024-02-10T07:11:12.459Z,7.50
2024-02-10T07:12:11.760Z,7.52
2024-02-10T07:13:11.793Z,7.50
2024-02-10T07:14:11.797Z,7.50
2024-02-10T07:15:11.855Z,7.53
2024-02-10T07:16:11.730Z,7.56
2024-02-10T07:17:11.748Z,7.59
2024-02-10T07:18:11.873Z,7.59
2024-02-10T07:19:11.890Z,7.62
2024-02-10T07:20:11.711Z,7.63
2024-02-10T07:21:11.981Z,7.66
2024-02-10T07:22:11.701Z,7.66
2024-02-10T07:23:11.680Z,7.63
2024-02-10T07:24:11.732Z,7.66
2024-02-10T07:25:11.631Z,7.60
2024-02-10T07:26:11.675Z,7.62
2024-02-10T07:27:11.615Z,7.62
2024-02-10T07:28:11.635Z,7.67
2024-02-10T07:29:11.608Z,7.69
2024-02-10T07:30:11.583Z,7.74
2024-02-10T07:31:13.630Z,7.77
2024-02-10T07:32:11.633Z,7.81
2024-02-10T07:33:12.727Z,7.82
2024-02-10T07:34:11.660Z,7.87
2024-02-10T07:35:11.638Z,7.85
2024-02-10T07:36:11.535Z,7.84
2024-02-10T07:37:11.584Z,7.85
2024-02-10T07:38:11.792Z,7.89
2024-02-10T07:39:11.575Z,7.89
2024-02-10T07:40:11.532Z,7.89
2024-02-10T07:41:11.526Z,7.90
2024-02-10T07:42:11.466Z,7.90
2024-02-10T07:43:11.494Z,7.89
2024-02-10T07:44:11.482Z,7.90
2024-02-10T07:45:11.431Z,7.87
2024-02-10T07:46:11.456Z,7.92
2024-02-10T07:47:11.539Z,7.90
2024-02-10T07:48:11.479Z,7.93
2024-02-10T07:50:23.233Z,7.99
2024-02-10T07:51:24.202Z,8.03
2024-02-10T07:52:24.251Z,8.02
2024-02-10T07:53:24.183Z,8.03
2024-02-10T07:54:24.285Z,8.04
2024-02-10T07:55:24.163Z,8.12
2024-02-10T07:56:24.151Z,8.12
2024-02-10T07:57:24.142Z,8.18
2024-02-10T07:58:24.242Z,8.20
2024-02-10T07:59:24.086Z,8.25
2024-02-10T08:00:24.120Z,8.25
2024-02-10T08:01:24.187Z,8.28
2024-02-10T08:02:24.065Z,8.30
2024-02-10T08:03:24.051Z,8.29
2024-02-10T08:04:24.132Z,8.35
2024-02-10T08:05:24.084Z,8.36
2024-02-10T08:06:24.033Z,8.36
2024-02-10T08:07:24.012Z,8.35
2024-02-10T08:08:24.033Z,8.33
2024-02-10T08:09:23.970Z,8.36
2024-02-10T08:10:24.026Z,8.39
2024-02-10T08:11:23.956Z,8.39
2024-02-10T08:12:23.952Z,8.39
2024-02-10T08:13:23.990Z,8.44
2024-02-10T08:14:23.951Z,8.47
2024-02-10T08:15:24.010Z,8.53
2024-02-10T08:16:24.003Z,8.55
2024-02-10T08:17:23.935Z,8.55
2024-02-10T08:18:24.067Z,8.62
2024-02-10T08:19:23.937Z,8.65
2024-02-10T08:20:23.879Z,8.68
2024-02-10T08:21:23.858Z,8.69
2024-02-10T08:22:23.873Z,8.71
2024-02-10T08:23:23.840Z,8.72
2024-02-10T08:24:23.810Z,8.76
2024-02-10T08:25:23.881Z,8.76
2024-02-10T08:26:23.838Z,8.75
2024-02-10T08:27:23.780Z,8.81
2024-02-10T08:28:23.818Z,8.83
2024-02-10T08:29:23.749Z,8.87
2024-02-10T08:30:23.741Z,8.84
2024-02-10T08:31:23.857Z,8.86
2024-02-10T08:32:25.739Z,8.86
2024-02-10T08:33:23.831Z,8.88
2024-02-10T08:34:23.760Z,8.88
2024-02-10T08:35:23.713Z,8.94
2024-02-10T08:36:23.681Z,8.91
2024-02-10T08:37:23.762Z,8.91
2024-02-10T08:38:23.706Z,8.94
2024-02-10T08:39:23.654Z,8.94
2024-02-10T08:40:23.677Z,8.96
2024-02-10T08:41:23.651Z,8.99
2024-02-10T08:42:23.640Z,9.01
2024-02-10T08:43:23.670Z,9.01
2024-02-10T08:44:23.636Z,9.01
2024-02-10T08:45:23.619Z,9.02
2024-02-10T08:46:23.657Z,9.05
2024-02-10T08:47:23.603Z,9.02
2024-02-10T08:48:23.606Z,9.01
2024-02-10T08:49:23.627Z,9.06
2024-02-10T08:50:23.603Z,9.10
2024-02-10T08:51:23.603Z,9.13
2024-02-10T08:52:25.414Z,9.13
2024-02-10T08:53:24.083Z,9.13
2024-02-10T08:54:23.531Z,9.18
2024-02-10T08:55:24.066Z,9.21
2024-02-10T08:56:23.488Z,9.25
2024-02-10T08:57:24.039Z,9.23
2024-02-10T08:58:23.548Z,9.25
2024-02-10T08:59:23.772Z,9.25
2024-02-10T09:00:23.536Z,9.28
2024-02-10T09:01:24.046Z,9.27
2024-02-10T09:02:24.018Z,9.32
2024-02-10T09:03:23.886Z,9.27
2024-02-10T09:04:24.507Z,9.30
2024-02-10T09:05:23.455Z,9.35
2024-02-10T09:06:23.533Z,9.34
2024-02-10T09:07:23.574Z,9.40
2024-02-10T09:08:24.269Z,9.39
2024-02-10T09:09:23.488Z,9.39
2024-02-10T09:10:23.333Z,9.39
2024-02-10T09:11:23.377Z,9.42
2024-02-10T09:12:23.342Z,9.43
2024-02-10T09:13:23.392Z,9.45
2024-02-10T09:14:23.569Z,9.45
2024-02-10T09:15:23.281Z,9.46
2024-02-10T09:16:23.300Z,9.49
2024-02-10T09:17:23.271Z,9.50
2024-02-10T09:18:23.309Z,9.50
2024-02-10T09:19:23.301Z,9.53
2024-02-10T09:20:23.246Z,9.52
2024-02-10T09:21:24.704Z,9.61
2024-02-10T09:22:23.247Z,9.63
2024-02-10T09:23:23.219Z,9.63
2024-02-10T09:24:23.197Z,9.66
2024-02-10T09:25:23.248Z,9.64
2024-02-10T09:26:23.173Z,9.67
2024-02-10T09:27:23.187Z,9.73
2024-02-10T09:28:23.983Z,9.73
2024-02-10T09:29:23.154Z,9.78
2024-02-10T09:30:23.137Z,9.81
2024-02-10T09:31:23.164Z,9.81
2024-02-10T09:32:23.099Z,9.82
2024-02-10T09:33:23.318Z,9.83
2024-02-10T09:34:23.160Z,9.85
2024-02-10T09:35:28.355Z,9.88
2024-02-10T09:36:23.060Z,9.86
2024-02-10T09:37:23.087Z,9.94
2024-02-10T09:38:23.075Z,9.89
2024-02-10T09:39:23.036Z,9.86
2024-02-10T09:40:23.052Z,9.88
2024-02-10T09:41:23.037Z,9.91
2024-02-10T09:42:23.008Z,9.93
2024-02-10T09:43:23.046Z,9.96
2024-02-10T09:44:23.012Z,9.96
2024-02-10T09:45:22.967Z,9.94
2024-02-10T09:46:23.058Z,9.94
2024-02-10T09:47:22.953Z,9.97
2024-02-10T09:48:23.098Z,9.99
2024-02-10T09:49:22.934Z,10.03
2024-02-10T09:50:31.165Z,10.04
2024-02-10T09:51:22.900Z,10.07
2024-02-10T09:52:22.964Z,10.09
2024-02-10T09:53:22.877Z,10.12
2024-02-10T09:54:22.872Z,10.14
2024-02-10T09:55:22.888Z,10.19
2024-02-10T09:56:22.950Z,10.17
2024-02-10T09:57:22.881Z,10.18
2024-02-10T09:58:22.855Z,10.19
2024-02-10T09:59:22.906Z,10.18
2024-02-10T10:00:22.802Z,10.21
2024-02-10T10:01:22.849Z,10.21
2024-02-10T10:02:22.780Z,10.19
2024-02-10T10:03:22.887Z,10.24
2024-02-10T10:04:23.289Z,10.25
2024-02-10T10:05:22.896Z,10.30
2024-02-10T10:06:22.814Z,10.30
2024-02-10T10:07:22.757Z,10.28
2024-02-10T10:08:22.735Z,10.36
2024-02-10T10:09:23.270Z,10.34
2024-02-10T10:10:22.723Z,10.39
2024-02-10T10:11:22.697Z,10.42
2024-02-10T10:12:22.692Z,10.40
2024-02-10T10:13:22.722Z,10.42
2024-02-10T10:14:22.684Z,10.46
2024-02-10T10:15:22.637Z,10.43
2024-02-10T10:16:22.753Z,10.43
2024-02-10T10:17:22.710Z,10.46
2024-02-10T10:18:22.705Z,10.53
2024-02-10T10:19:22.611Z,10.55
2024-02-10T10:20:22.585Z,10.58
2024-02-10T10:21:22.581Z,10.60
2024-02-10T10:22:22.626Z,10.63
2024-02-10T10:23:22.587Z,10.70
2024-02-10T10:24:22.554Z,10.71
2024-02-10T10:25:22.577Z,10.74
2024-02-10T10:26:22.523Z,10.78
2024-02-10T10:27:22.537Z,10.78
2024-02-10T10:28:22.569Z,10.81
2024-02-10T10:29:22.526Z,10.81
2024-02-10T10:30:22.484Z,10.81
2024-02-10T10:31:23.673Z,10.84
2024-02-10T10:32:22.599Z,10.86
2024-02-10T10:33:23.058Z,10.84
2024-02-10T10:34:22.481Z,10.86
2024-02-10T10:35:22.444Z,10.89
2024-02-10T10:36:22.418Z,10.91
2024-02-10T10:37:22.480Z,10.88
2024-02-10T10:38:22.426Z,10.89
2024-02-10T10:39:22.407Z,10.92
2024-02-10T10:40:22.443Z,10.94
2024-02-10T10:41:22.388Z,10.99
2024-02-10T10:42:22.367Z,11.02
2024-02-10T10:43:23.105Z,11.02
2024-02-10T10:44:22.332Z,11.07
2024-02-10T10:45:22.357Z,11.07
2024-02-10T10:46:22.402Z,11.13
2024-02-10T10:47:22.378Z,11.13
2024-02-10T10:48:22.506Z,11.24
2024-02-10T10:49:22.343Z,11.25
2024-02-10T10:50:22.270Z,11.28
2024-02-10T10:51:22.273Z,11.29
2024-02-10T10:52:22.299Z,11.31
2024-02-10T10:53:22.231Z,11.35
2024-02-10T10:54:22.268Z,11.34
2024-02-10T10:55:22.297Z,11.34
2024-02-10T10:56:22.202Z,11.38
2024-02-10T10:57:22.212Z,11.38
2024-02-10T10:58:22.319Z,11.32
2024-02-10T10:59:22.187Z,11.32
2024-02-10T11:00:22.291Z,11.29
2024-02-10T11:01:22.555Z,11.31
2024-02-10T11:02:29.882Z,11.34
2024-02-10T11:03:22.210Z,11.35
2024-02-10T11:04:23.086Z,11.39
2024-02-10T11:05:22.220Z,11.43
2024-02-10T11:06:22.123Z,11.44
2024-02-10T11:07:22.192Z,11.41
2024-02-10T11:08:22.104Z,11.43
2024-02-10T11:09:22.106Z,11.46
2024-02-10T11:10:22.101Z,11.41
2024-02-10T11:11:22.074Z,11.38
2024-02-10T11:12:22.067Z,11.35
2024-02-10T11:13:22.048Z,11.39
2024-02-10T11:14:22.043Z,11.39
2024-02-10T11:15:22.069Z,11.41
2024-02-10T11:16:22.100Z,11.49
2024-02-10T11:17:22.089Z,11.49
2024-02-10T11:18:22.051Z,11.53
2024-02-10T11:19:22.185Z,11.50
2024-02-10T11:20:21.992Z,11.53
2024-02-10T11:21:21.985Z,11.53
2024-02-10T11:22:21.974Z,11.62
2024-02-10T11:23:22.001Z,11.62
2024-02-10T11:24:35.565Z,11.68
2024-02-10T11:25:21.966Z,11.65
2024-02-10T11:26:21.905Z,11.74
2024-02-10T11:27:21.886Z,11.74
2024-02-10T11:28:22.005Z,11.75
2024-02-10T11:29:22.050Z,11.78
2024-02-10T11:30:21.865Z,11.82
2024-02-10T11:31:21.987Z,11.86
2024-02-10T11:32:21.826Z,11.87
2024-02-10T11:33:22.846Z,11.87
2024-02-10T11:34:21.878Z,11.87
2024-02-10T11:35:21.950Z,11.93
2024-02-10T11:36:21.825Z,11.90
2024-02-10T11:37:22.849Z,11.93
2024-02-10T11:38:21.858Z,11.94
2024-02-10T11:39:22.772Z,11.96
2024-02-10T11:40:21.736Z,11.96
2024-02-10T11:41:22.260Z,12.01
2024-02-10T11:42:21.707Z,11.97
2024-02-10T11:43:22.325Z,11.96
2024-02-10T11:44:21.711Z,12.06
2024-02-10T11:45:21.958Z,12.06
2024-02-10T11:46:21.752Z,12.09
2024-02-10T11:47:22.061Z,12.11
2024-02-10T11:48:21.737Z,12.20
2024-02-10T11:49:21.830Z,12.19
2024-02-10T11:50:22.731Z,12.20
2024-02-10T11:51:21.632Z,12.24
2024-02-10T11:52:21.678Z,12.23
2024-02-10T11:53:21.594Z,12.29
2024-02-10T11:54:21.590Z,12.29
2024-02-10T11:55:21.782Z,12.27
2024-02-10T11:56:21.606Z,12.27
2024-02-10T11:57:21.563Z,12.31
2024-02-10T11:58:21.601Z,12.31
2024-02-10T11:59:21.580Z,12.33
2024-02-10T12:00:21.513Z,12.39
2024-02-10T12:01:21.617Z,12.41
2024-02-10T12:02:21.563Z,12.38
2024-02-10T12:03:21.486Z,12.41
2024-02-10T12:04:21.552Z,12.41
2024-02-10T12:05:21.626Z,12.44
2024-02-10T12:06:21.513Z,12.41
2024-02-10T12:07:21.507Z,12.41
2024-02-10T12:08:21.445Z,12.39
2024-02-10T12:09:21.444Z,12.42
2024-02-10T12:10:21.472Z,12.41
2024-02-10T12:11:21.409Z,12.42
2024-02-10T12:12:21.433Z,12.44
2024-02-10T12:13:21.427Z,12.46
2024-02-10T12:14:21.379Z,12.39
2024-02-10T12:15:21.357Z,12.44
2024-02-10T12:16:21.408Z,12.38
2024-02-10T12:17:21.391Z,12.38
2024-02-10T12:18:21.356Z,12.38
2024-02-10T12:19:21.439Z,12.39
2024-02-10T12:20:21.326Z,12.41
2024-02-10T12:21:21.313Z,12.41
2024-02-10T12:22:21.360Z,12.41
2024-02-10T12:23:21.295Z,12.39
2024-02-10T12:24:21.298Z,12.38
2024-02-10T12:25:21.260Z,12.38
2024-02-10T12:26:21.285Z,12.39
2024-02-10T12:27:22.452Z,12.46
2024-02-10T12:28:21.576Z,12.48
2024-02-10T12:29:22.407Z,12.49
2024-02-10T12:30:21.228Z,12.54
2024-02-10T12:31:21.215Z,12.52
2024-02-10T12:32:21.197Z,12.54
2024-02-10T12:33:21.201Z,12.54
2024-02-10T12:34:21.245Z,12.56
2024-02-10T12:35:21.590Z,12.57
2024-02-10T12:36:21.145Z,12.57
2024-02-10T12:37:30.321Z,12.67
2024-02-10T12:38:21.210Z,12.64
2024-02-10T12:39:21.143Z,12.66
2024-02-10T12:40:21.136Z,12.67
2024-02-10T12:41:21.135Z,12.67
2024-02-10T12:42:21.230Z,12.64
2024-02-10T12:43:21.220Z,12.67
2024-02-10T12:44:21.204Z,12.64
2024-02-10T12:45:21.172Z,12.67
2024-02-10T12:46:21.452Z,12.66
2024-02-10T12:47:21.092Z,12.62
2024-02-10T12:48:21.302Z,12.67
2024-02-10T12:49:21.068Z,12.71
2024-02-10T12:50:21.079Z,12.67
2024-02-10T12:51:21.004Z,12.67
2024-02-10T12:52:21.086Z,12.71
2024-02-10T12:53:20.964Z,12.78
2024-02-10T12:54:20.971Z,12.74
2024-02-10T12:55:21.025Z,12.70
2024-02-10T12:56:21.137Z,12.71
2024-02-10T12:57:20.933Z,12.74
2024-02-10T12:58:20.967Z,12.67
2024-02-10T12:59:20.940Z,12.67
2024-02-10T13:00:20.985Z,12.64
2024-02-10T13:01:20.932Z,12.60
2024-02-10T13:02:20.879Z,12.64
2024-02-10T13:03:21.545Z,12.60
2024-02-10T13:04:20.971Z,12.56
2024-02-10T13:05:20.999Z,12.54
2024-02-10T13:06:20.865Z,12.52
2024-02-10T13:07:21.890Z,12.46
2024-02-10T13:08:21.284Z,12.45
2024-02-10T13:09:20.820Z,12.44
2024-02-10T13:10:21.053Z,12.42
2024-02-10T13:11:21.710Z,12.38
2024-02-10T13:12:20.783Z,12.34
2024-02-10T13:13:21.423Z,12.31
2024-02-10T13:14:20.935Z,12.29
2024-02-10T13:15:22.255Z,12.24
2024-02-10T13:16:20.859Z,12.26
2024-02-10T13:17:20.787Z,12.30
2024-02-10T13:18:26.637Z,12.27
2024-02-10T13:19:21.648Z,12.26
2024-02-10T13:20:20.850Z,12.27
2024-02-10T13:21:20.682Z,12.29
2024-02-10T13:22:20.839Z,12.27
2024-02-10T13:23:20.661Z,12.29
2024-02-10T13:24:20.646Z,12.29
2024-02-10T13:25:20.734Z,12.30
2024-02-10T13:26:20.643Z,12.33
2024-02-10T13:27:21.243Z,12.27
2024-02-10T13:28:20.706Z,12.31
2024-02-10T13:29:20.636Z,12.33
2024-02-10T13:30:20.620Z,12.33
2024-02-10T13:31:20.604Z,12.37
2024-02-10T13:32:20.678Z,12.42
2024-02-10T13:33:20.664Z,12.41
2024-02-10T13:34:31.584Z,12.38